createdAt,value
2022-10-11T00:01:03.072Z,99.99
2022-10-11T00:06:03.428Z,99.99
2022-10-11T00:11:03.159Z,99.99
2022-10-11T00:16:03.196Z,99.99
2022-10-11T00:21:02.772Z,99.99
2022-10-11T00:26:03.308Z,99.99
2022-10-11T00:31:03.049Z,99.99
2022-10-11T00:36:03.007Z,99.99
2022-10-11T00:41:02.475Z,99.99
2022-10-11T00:46:02.943Z,99.99
2022-10-11T00:51:02.870Z,99.99
2022-10-11T00:56:02.785Z,99.99
2022-10-11T01:01:02.353Z,99.99
2022-10-11T01:06:02.600Z,99.99
2022-10-11T01:11:02.105Z,99.99
2022-10-11T01:16:02.408Z,99.88
2022-10-11T01:21:01.967Z,99.78
2022-10-11T01:26:02.354Z,99.63
2022-10-11T01:31:01.849Z,99.63
2022-10-11T01:36:02.100Z,99.07
2022-10-11T01:41:01.845Z,98.86
2022-10-11T01:46:01.971Z,98.41
2022-10-11T01:51:01.566Z,97.80
2022-10-11T01:56:01.901Z,97.49
2022-10-11T02:01:01.540Z,97.45
2022-10-11T02:06:01.535Z,96.84
2022-10-11T02:11:01.292Z,96.38
2022-10-11T02:16:01.259Z,96.08
2022-10-11T02:21:01.174Z,95.62
2022-10-11T02:26:01.260Z,94.91
2022-10-11T02:31:01.022Z,94.76
2022-10-11T02:36:08.417Z,93.85
2022-10-11T02:41:08.004Z,93.70
2022-10-11T02:46:00.800Z,93.60
2022-10-11T02:51:00.752Z,92.07
2022-10-11T02:56:00.667Z,91.01
2022-10-11T03:01:00.604Z,89.95
2022-10-11T03:06:00.721Z,89.24
2022-10-11T03:11:00.509Z,88.48
2022-10-11T03:16:03.599Z,87.98
2022-10-11T03:21:00.369Z,88.08
2022-10-11T03:26:00.292Z,86.86
2022-10-11T03:31:00.246Z,86.15
2022-10-11T03:36:00.168Z,85.74
2022-10-11T03:41:00.101Z,83.20
2022-10-11T03:46:00.059Z,82.62
2022-10-11T03:50:59.965Z,81.71
2022-10-11T03:56:03.411Z,79.98
2022-10-11T04:01:00.821Z,79.81
2022-10-11T04:05:59.811Z,78.49
2022-10-11T04:10:59.704Z,78.42
2022-10-11T04:15:59.646Z,79.54
2022-10-11T04:20:59.552Z,80.16
2022-10-11T04:25:59.476Z,80.26
2022-10-11T04:30:59.438Z,79.58
2022-10-11T04:35:59.378Z,82.07
2022-10-11T04:40:59.280Z,81.56
2022-10-11T04:45:59.229Z,82.51
2022-10-11T04:50:59.318Z,83.47
2022-10-11T04:55:59.073Z,84.08
2022-10-11T05:00:59.012Z,84.39
2022-10-11T05:06:03.151Z,84.74
2022-10-11T05:10:59.909Z,84.94
2022-10-11T05:15:58.853Z,86.41
2022-10-11T05:20:58.767Z,86.85
2022-10-11T05:25:58.694Z,87.26
2022-10-11T05:30:58.661Z,88.23
2022-10-11T05:35:58.557Z,88.47
2022-10-11T05:40:58.473Z,89.29
2022-10-11T05:45:58.456Z,90.56
2022-10-11T05:50:58.426Z,91.63
2022-10-11T05:55:58.455Z,92.24
2022-10-11T06:00:58.259Z,93.00
2022-10-11T06:05:58.247Z,93.10
2022-10-11T06:10:58.103Z,93.62
2022-10-11T06:16:05.902Z,90.27
2022-10-11T06:20:57.935Z,86.57
2022-10-11T06:25:57.866Z,85.06
2022-10-11T06:30:57.810Z,83.49
2022-10-11T06:35:57.736Z,82.29
2022-10-11T06:40:57.687Z,80.29
2022-10-11T06:45:57.599Z,79.23
2022-10-11T06:50:59.990Z,80.11
2022-10-11T06:55:57.469Z,77.70
2022-10-11T07:00:57.565Z,75.70
2022-10-11T07:06:02.117Z,75.66
2022-10-11T07:10:58.274Z,73.33
2022-10-11T07:15:57.204Z,73.46
2022-10-11T07:20:57.158Z,72.04
2022-10-11T07:25:57.075Z,71.13
2022-10-11T07:30:57.020Z,69.81
2022-10-11T07:35:56.978Z,70.73
2022-10-11T07:40:56.919Z,71.09
2022-10-11T07:45:56.842Z,71.84
2022-10-11T07:50:57.033Z,70.32
2022-10-11T07:55:56.702Z,70.59
2022-10-11T08:00:56.785Z,68.54
2022-10-11T08:05:56.581Z,69.31
2022-10-11T08:10:56.510Z,70.93
2022-10-11T08:15:56.422Z,69.18
2022-10-11T08:20:56.480Z,70.83
2022-10-11T08:25:56.317Z,69.78
2022-10-11T08:30:56.253Z,68.90
2022-10-11T08:35:56.168Z,71.20
2022-10-11T08:40:56.109Z,70.89
2022-10-11T08:45:56.049Z,71.67
2022-10-11T08:50:55.969Z,73.02
2022-10-11T08:55:56.222Z,70.69
2022-10-11T09:00:55.953Z,69.74
2022-10-11T09:05:55.826Z,69.71
2022-10-11T09:10:55.952Z,68.06
2022-10-11T09:15:55.669Z,67.76
2022-10-11T09:20:55.635Z,66.61
2022-10-11T09:25:55.514Z,65.37
2022-10-11T09:30:55.441Z,62.85
2022-10-11T09:35:55.372Z,64.26
2022-10-11T09:40:55.316Z,62.60
2022-10-11T09:45:55.266Z,62.47
2022-10-11T09:50:55.192Z,63.21
2022-10-11T09:55:55.115Z,62.24
2022-10-11T10:00:55.053Z,62.30
2022-10-11T10:05:54.978Z,62.57
2022-10-11T10:10:59.261Z,60.02
2022-10-11T10:15:54.987Z,59.81
2022-10-11T10:20:54.844Z,57.68
2022-10-11T10:25:54.687Z,58.07
2022-10-11T10:30:54.649Z,57.59
2022-10-11T10:35:54.546Z,57.69
2022-10-11T10:40:54.511Z,61.11
2022-10-11T10:45:54.417Z,60.91
2022-10-11T10:50:54.439Z,59.29
2022-10-11T10:55:54.424Z,57.60
2022-10-11T11:00:54.626Z,57.22
2022-10-11T11:05:54.170Z,57.47
2022-10-11T11:10:54.125Z,56.38
2022-10-11T11:15:57.946Z,54.10
2022-10-11T11:20:54.141Z,54.48
2022-10-11T11:25:53.882Z,52.67
2022-10-11T11:30:53.817Z,52.49
2022-10-11T11:35:53.734Z,52.94
2022-10-11T11:40:53.674Z,55.26
2022-10-11T11:45:53.629Z,53.25
2022-10-11T11:50:53.536Z,53.17
2022-10-11T11:55:53.472Z,54.94
2022-10-11T12:00:53.415Z,55.67
2022-10-11T12:05:53.338Z,53.25
2022-10-11T12:10:53.286Z,54.33
2022-10-11T12:15:53.219Z,54.43
2022-10-11T12:20:53.129Z,54.25
2022-10-11T12:25:53.093Z,53.34
2022-10-11T12:30:53.080Z,52.44
2022-10-11T12:35:52.951Z,54.33
2022-10-11T12:40:52.952Z,52.51
2022-10-11T12:45:52.838Z,53.40
2022-10-11T12:50:52.762Z,52.09
2022-10-11T12:55:52.690Z,50.47
2022-10-11T13:00:52.658Z,52.39
2022-10-11T13:05:53.846Z,50.95
2022-10-11T13:10:52.677Z,50.98
2022-10-11T13:15:52.424Z,50.57
2022-10-11T13:20:52.344Z,49.74
2022-10-11T13:25:52.329Z,50.87
2022-10-11T13:30:52.210Z,51.28
2022-10-11T13:35:52.164Z,51.78
2022-10-11T13:40:52.114Z,50.98
2022-10-11T13:45:52.016Z,52.59
2022-10-11T13:50:52.182Z,53.17
2022-10-11T13:55:51.906Z,51.58
2022-10-11T14:00:51.805Z,51.38
2022-10-11T14:05:51.768Z,52.09
2022-10-11T14:10:55.792Z,51.07
2022-10-11T14:15:52.664Z,51.66
2022-10-11T14:20:59.009Z,50.95
2022-10-11T14:25:51.478Z,52.56
2022-10-11T14:30:51.416Z,51.35
2022-10-11T14:35:51.363Z,51.48
2022-10-11T14:40:51.291Z,51.32
2022-10-11T14:45:51.239Z,51.73
2022-10-11T14:50:51.184Z,53.27
2022-10-11T14:55:51.102Z,53.88
2022-10-11T15:00:51.051Z,54.79
2022-10-11T15:05:51.015Z,55.73
2022-10-11T15:10:50.908Z,55.32
2022-10-11T15:15:50.870Z,55.42
2022-10-11T15:20:50.776Z,55.52
2022-10-11T15:25:50.702Z,55.85
2022-10-11T15:30:50.669Z,56.56
2022-10-11T15:35:50.560Z,58.28
2022-10-11T15:40:50.508Z,60.26
2022-10-11T15:45:50.482Z,55.51
2022-10-11T15:50:50.338Z,56.55
2022-10-11T15:55:50.265Z,55.21
2022-10-11T16:00:50.249Z,52.92
2022-10-11T16:05:50.197Z,55.19
2022-10-11T16:10:50.095Z,54.38
2022-10-11T16:15:50.007Z,58.02
2022-10-11T16:20:50.025Z,60.20
2022-10-11T16:25:49.879Z,62.75
2022-10-11T16:30:49.833Z,60.66
2022-10-11T16:35:49.733Z,62.68
2022-10-11T16:40:49.917Z,62.71
2022-10-11T16:45:49.849Z,63.52
2022-10-11T16:51:10.563Z,65.94
2022-10-11T16:55:49.537Z,69.40
2022-10-11T17:00:49.613Z,72.31
2022-10-11T17:05:49.343Z,73.71
2022-10-11T17:10:49.273Z,75.88
2022-10-11T17:15:49.242Z,78.50
2022-10-11T17:20:49.480Z,80.32
2022-10-11T17:25:49.188Z,81.79
2022-10-11T17:30:48.998Z,83.46
2022-10-11T17:35:49.041Z,84.52
2022-10-11T17:40:48.929Z,85.28
2022-10-11T17:45:48.837Z,86.65
2022-10-11T17:50:50.785Z,87.92
2022-10-11T17:55:48.703Z,88.88
2022-10-11T18:00:48.728Z,88.12
2022-10-11T18:05:48.588Z,86.44
2022-10-11T18:10:48.596Z,86.85
2022-10-11T18:15:53.368Z,90.13
2022-10-11T18:20:49.332Z,90.07
2022-10-11T18:25:48.294Z,90.36
2022-10-11T18:30:48.257Z,91.94
2022-10-11T18:35:48.156Z,92.97
2022-10-11T18:40:48.434Z,92.50
2022-10-11T18:45:48.024Z,92.29
2022-10-11T18:50:47.958Z,92.03
2022-10-11T18:55:48.070Z,92.23
2022-10-11T19:00:47.914Z,92.54
2022-10-11T19:05:47.738Z,93.16
2022-10-11T19:10:47.761Z,93.67
2022-10-11T19:15:47.688Z,93.98
2022-10-11T19:20:47.690Z,94.12
2022-10-11T19:25:47.497Z,94.58
2022-10-11T19:30:47.521Z,95.20
2022-10-11T19:35:47.760Z,95.61
2022-10-11T19:40:47.312Z,95.50
2022-10-11T19:45:47.291Z,95.03
2022-10-11T19:50:47.545Z,96.17
2022-10-11T19:55:47.097Z,95.30
2022-10-11T20:00:47.241Z,95.24
2022-10-11T20:05:47.000Z,95.70
2022-10-11T20:10:46.885Z,96.21
2022-10-11T20:15:46.815Z,96.83
2022-10-11T20:20:46.864Z,96.93
2022-10-11T20:25:46.768Z,96.93
2022-10-11T20:30:46.689Z,97.49
2022-10-11T20:35:46.617Z,98.00
2022-10-11T20:40:46.527Z,98.00
2022-10-11T20:45:46.529Z,98.05
2022-10-11T20:50:46.374Z,98.05
2022-10-11T20:55:46.305Z,97.89
2022-10-11T21:00:46.272Z,98.86
2022-10-11T21:05:46.368Z,99.13
2022-10-11T21:10:46.100Z,99.17
2022-10-11T21:15:46.076Z,99.52
2022-10-11T21:20:46.159Z,99.99
2022-10-11T21:25:45.903Z,99.99
2022-10-11T21:30:45.832Z,99.99
2022-10-11T21:35:45.747Z,99.79
2022-10-11T21:40:45.834Z,99.58
2022-10-11T21:45:45.632Z,99.17
2022-10-11T21:50:45.544Z,99.01
2022-10-11T21:55:45.564Z,99.52
2022-10-11T22:00:45.413Z,99.94
2022-10-11T22:05:45.372Z,99.99
2022-10-11T22:10:45.598Z,99.99
2022-10-11T22:15:45.261Z,99.99
2022-10-11T22:20:45.332Z,99.99
2022-10-11T22:25:45.167Z,99.99
2022-10-11T22:30:45.033Z,99.99
2022-10-11T22:35:44.967Z,99.99
2022-10-11T22:40:44.981Z,99.99
2022-10-11T22:45:44.837Z,99.99
2022-10-11T22:50:44.767Z,99.99
2022-10-11T22:55:44.752Z,99.99
2022-10-11T23:00:44.631Z,99.99
2022-10-11T23:05:44.589Z,99.99
2022-10-11T23:10:44.568Z,99.99
2022-10-11T23:15:44.633Z,99.99
2022-10-11T23:20:44.422Z,99.99
2022-10-11T23:25:44.304Z,99.99
2022-10-11T23:30:44.234Z,99.99
2022-10-11T23:35:44.173Z,99.99
2022-10-11T23:40:44.179Z,99.99
2022-10-11T23:45:44.062Z,99.99
2022-10-11T23:50:44.017Z,99.99
2022-10-11T23:55:43.914Z,99.99
